Time;durP1;ratioP1;P1;durP2;ratioP2;P2;SDS_P1;SDS_P2;PMS_P1;PMS_P2;Temp;Humidity;BMP_temperature;BMP_pressure;BME280_temperature;BME280_humidity;BME280_pressure;Samples;Min_cycle;Max_cycle;Signal;HPM_P1;HPM_P2
2023/05/15 00:00:23;;;;;;;;;52.67;41.33;;;;;;;;4954542;28;45428;-78
2023/05/15 00:02:49;;;;;;;;;49.00;39.00;;;;;;;;4953840;28;45734;-78
2023/05/15 00:05:14;;;;;;;;;51.00;41.33;;;;;;;;4955141;28;45753;-77
2023/05/15 00:07:40;;;;;;;;;51.33;41.33;;;;;;;;4959565;28;45949;-79
2023/05/15 00:10:05;;;;;;;;;53.33;42.00;;;;;;;;4949804;28;45612;-77
2023/05/15 00:12:31;;;;;;;;;48.50;39.75;;;;;;;;4953412;28;45484;-77
2023/05/15 00:14:56;;;;;;;;;46.00;36.00;;;;;;;;4948229;28;45786;-77
2023/05/15 00:17:21;;;;;;;;;41.67;35.00;;;;;;;;4948675;28;47867;-76
2023/05/15 00:19:46;;;;;;;;;45.00;34.00;;;;;;;;4958159;28;45451;-77
2023/05/15 00:22:12;;;;;;;;;44.00;35.33;;;;;;;;4956283;28;45786;-78
2023/05/15 00:24:37;;;;;;;;;43.00;36.67;;;;;;;;4940847;28;45702;-77
2023/05/15 00:27:03;;;;;;;;;33.00;31.67;;;;;;;;4952042;28;45914;-77
2023/05/15 00:29:28;;;;;;;;;43.33;34.33;;;;;;;;4952644;28;45618;-77
2023/05/15 00:31:53;;;;;;;;;51.33;38.67;;;;;;;;4946855;28;45588;-78
2023/05/15 00:34:19;;;;;;;;;41.00;36.00;;;;;;;;4957080;28;46538;-76
2023/05/15 00:36:44;;;;;;;;;41.67;34.00;;;;;;;;4948486;28;46991;-78
2023/05/15 00:39:10;;;;;;;;;43.00;35.33;;;;;;;;4954198;28;45582;-77
2023/05/15 00:41:35;;;;;;;;;48.33;37.33;;;;;;;;4955062;28;45459;-78
2023/05/15 00:44:01;;;;;;;;;47.00;36.67;;;;;;;;4952860;28;45599;-76
2023/05/15 00:46:26;;;;;;;;;40.67;32.67;;;;;;;;4953677;28;46147;-78
2023/05/15 00:48:52;;;;;;;;;37.33;32.67;;;;;;;;4943793;28;45859;-77
2023/05/15 00:51:17;;;;;;;;;45.67;36.33;;;;;;;;4953073;28;45773;-78
2023/05/15 00:53:43;;;;;;;;;46.33;36.67;;;;;;;;4952831;28;45734;-78
2023/05/15 00:56:09;;;;;;;;;44.33;36.67;;;;;;;;4952593;28;45858;-77
2023/05/15 00:58:35;;;;;;;;;49.00;37.33;;;;;;;;4954277;28;45356;-78
2023/05/15 01:01:01;;;;;;;;;45.33;35.67;;;;;;;;4946752;28;45369;-78
2023/05/15 01:03:27;;;;;;;;;50.33;38.33;;;;;;;;4955158;28;45583;-78
2023/05/15 01:05:52;;;;;;;;;48.00;39.00;;;;;;;;4950915;28;46259;-76
2023/05/15 01:08:22;;;;;;;;;46.33;39.00;;;;;;;;4948475;28;45682;-77
2023/05/15 01:10:48;;;;;;;;;47.67;34.67;;;;;;;;4950181;28;45668;-77
2023/05/15 01:13:14;;;;;;;;;49.67;39.00;;;;;;;;4951290;28;45893;-77
2023/05/15 01:15:40;;;;;;;;;52.00;40.00;;;;;;;;4947828;28;45903;-77
2023/05/15 01:18:06;;;;;;;;;47.67;39.33;;;;;;;;4952769;28;45679;-77
2023/05/15 01:20:33;;;;;;;;;38.67;34.67;;;;;;;;4954268;28;45413;-79
2023/05/15 01:23:08;;;;;;;;;47.33;38.67;;;;;;;;4953126;28;45484;-76
2023/05/15 01:25:36;;;;;;;;;46.00;37.67;;;;;;;;4947105;28;45538;-76
2023/05/15 01:28:04;;;;;;;;;47.33;38.33;;;;;;;;4946298;28;45465;-77
2023/05/15 01:30:32;;;;;;;;;55.33;41.67;;;;;;;;4940861;28;45768;-78
2023/05/15 01:33:05;;;;;;;;;51.67;40.00;;;;;;;;4947226;28;47174;-77
2023/05/15 01:35:51;;;;;;;;;58.00;42.33;;;;;;;;4945099;28;48784;-77
2023/05/15 01:38:26;;;;;;;;;56.00;42.00;;;;;;;;4949902;28;45570;-76
2023/05/15 01:40:58;;;;;;;;;52.67;41.67;;;;;;;;4953837;28;45706;-76
2023/05/15 01:43:26;;;;;;;;;55.00;43.00;;;;;;;;4964631;28;47095;-77
2023/05/15 01:45:52;;;;;;;;;50.00;40.33;;;;;;;;4951833;28;45673;-78
2023/05/15 01:48:18;;;;;;;;;54.00;41.33;;;;;;;;4963194;28;46085;-76
2023/05/15 01:50:44;;;;;;;;;53.33;42.00;;;;;;;;4951227;28;45534;-78
2023/05/15 01:53:10;;;;;;;;;54.00;44.33;;;;;;;;4950541;28;46238;-76
2023/05/15 01:55:36;;;;;;;;;49.67;40.33;;;;;;;;4953044;28;45814;-77
2023/05/15 01:58:01;;;;;;;;;52.00;39.00;;;;;;;;4947025;28;45693;-77
2023/05/15 02:00:28;;;;;;;;;55.33;41.33;;;;;;;;4947906;28;45393;-78
2023/05/15 02:02:54;;;;;;;;;57.00;41.33;;;;;;;;4952061;28;45648;-77
2023/05/15 02:05:19;;;;;;;;;51.00;41.33;;;;;;;;4946671;28;46510;-77
2023/05/15 02:07:45;;;;;;;;;51.33;41.67;;;;;;;;4947435;28;45811;-78
2023/05/15 02:10:14;;;;;;;;;50.00;40.67;;;;;;;;4943602;28;45829;-76
2023/05/15 02:12:40;;;;;;;;;47.33;38.00;;;;;;;;4945116;28;45888;-79
2023/05/15 02:15:07;;;;;;;;;48.33;40.00;;;;;;;;4951546;28;46780;-77
2023/05/15 02:17:33;;;;;;;;;53.67;41.00;;;;;;;;4950511;28;45449;-77
2023/05/15 02:19:58;;;;;;;;;52.33;40.33;;;;;;;;4950417;28;45655;-79
2023/05/15 02:22:23;;;;;;;;;50.67;40.33;;;;;;;;4952290;28;45492;-77
2023/05/15 02:24:48;;;;;;;;;54.67;42.00;;;;;;;;4943110;28;48292;-77
2023/05/15 02:27:14;;;;;;;;;56.67;41.33;;;;;;;;4944222;28;45674;-77
2023/05/15 02:29:45;;;;;;;;;58.67;44.33;;;;;;;;4952994;28;45458;-77
2023/05/15 02:32:18;;;;;;;;;51.33;37.00;;;;;;;;4938075;28;46012;-77
2023/05/15 02:34:43;;;;;;;;;54.67;41.33;;;;;;;;4944491;28;47297;-76
2023/05/15 02:37:12;;;;;;;;;54.67;44.00;;;;;;;;4947406;28;45567;-78
2023/05/15 02:39:39;;;;;;;;;55.33;42.67;;;;;;;;4951800;28;45720;-76
2023/05/15 02:42:05;;;;;;;;;57.67;44.00;;;;;;;;4944355;28;45797;-77
2023/05/15 02:44:31;;;;;;;;;59.33;45.67;;;;;;;;4957533;28;47035;-79
2023/05/15 02:46:57;;;;;;;;;50.00;38.33;;;;;;;;4960730;28;45434;-77
2023/05/15 02:49:22;;;;;;;;;50.00;41.00;;;;;;;;4964863;28;45775;-77
2023/05/15 02:51:48;;;;;;;;;55.33;43.33;;;;;;;;4955594;28;45912;-78
2023/05/15 02:54:14;;;;;;;;;50.33;40.33;;;;;;;;4960727;28;45463;-78
2023/05/15 02:56:39;;;;;;;;;46.33;38.00;;;;;;;;4961408;28;46029;-77
2023/05/15 02:59:04;;;;;;;;;49.00;38.33;;;;;;;;4950693;28;46051;-78
2023/05/15 03:01:29;;;;;;;;;52.00;37.67;;;;;;;;4959187;28;46085;-78
2023/05/15 03:03:55;;;;;;;;;42.33;35.67;;;;;;;;4945044;28;47408;-78
2023/05/15 03:06:20;;;;;;;;;49.00;37.00;;;;;;;;4946837;28;45880;-78
2023/05/15 03:08:45;;;;;;;;;46.33;34.67;;;;;;;;4949867;28;45792;-79
2023/05/15 03:11:10;;;;;;;;;52.67;40.67;;;;;;;;4949902;28;45780;-77
2023/05/15 03:13:36;;;;;;;;;44.00;34.33;;;;;;;;4949328;28;48178;-77
2023/05/15 03:16:01;;;;;;;;;51.33;43.00;;;;;;;;4950515;28;45703;-77
2023/05/15 03:18:26;;;;;;;;;49.67;40.67;;;;;;;;4961337;28;45867;-78
2023/05/15 03:20:51;;;;;;;;;44.00;35.00;;;;;;;;4951376;28;45677;-78
2023/05/15 03:23:17;;;;;;;;;55.67;38.00;;;;;;;;4946728;28;45777;-79
2023/05/15 03:25:42;;;;;;;;;46.33;37.33;;;;;;;;4950073;28;45491;-77
2023/05/15 03:28:07;;;;;;;;;47.33;36.00;;;;;;;;4950214;28;45755;-78
2023/05/15 03:30:32;;;;;;;;;46.67;37.67;;;;;;;;4948978;28;46380;-79
2023/05/15 03:32:58;;;;;;;;;48.67;37.00;;;;;;;;4945084;28;47530;-77
2023/05/15 03:35:24;;;;;;;;;45.33;35.33;;;;;;;;4949178;28;45519;-78
2023/05/15 03:37:50;;;;;;;;;46.00;38.00;;;;;;;;4951391;28;45409;-78
2023/05/15 03:40:15;;;;;;;;;52.67;38.00;;;;;;;;4949498;28;45441;-78
2023/05/15 03:42:40;;;;;;;;;45.67;34.33;;;;;;;;4945789;28;46441;-77
2023/05/15 03:45:06;;;;;;;;;45.67;34.67;;;;;;;;4948918;28;45603;-77
2023/05/15 03:47:31;;;;;;;;;42.67;35.67;;;;;;;;4950686;28;45541;-78
2023/05/15 03:49:56;;;;;;;;;52.00;39.67;;;;;;;;4947706;28;45412;-79
2023/05/15 03:52:22;;;;;;;;;42.00;33.00;;;;;;;;4959091;28;46392;-78
2023/05/15 03:54:47;;;;;;;;;46.67;38.67;;;;;;;;4952428;28;45428;-79
2023/05/15 03:57:12;;;;;;;;;48.67;37.00;;;;;;;;4952295;28;45443;-77
2023/05/15 03:59:37;;;;;;;;;47.00;36.67;;;;;;;;4943360;28;45476;-78
2023/05/15 04:02:03;;;;;;;;;48.67;38.00;;;;;;;;4937189;28;46154;-78
2023/05/15 04:04:28;;;;;;;;;48.67;35.33;;;;;;;;4935443;28;46061;-78
2023/05/15 04:06:53;;;;;;;;;48.33;38.67;;;;;;;;4951689;28;45571;-78
2023/05/15 04:09:18;;;;;;;;;43.67;36.00;;;;;;;;4949127;28;45602;-79
2023/05/15 04:11:45;;;;;;;;;42.67;37.00;;;;;;;;4947802;28;46320;-77
2023/05/15 04:14:11;;;;;;;;;50.33;34.67;;;;;;;;4936102;28;45878;-78
2023/05/15 04:16:36;;;;;;;;;45.00;35.33;;;;;;;;4946008;28;45463;-78
2023/05/15 04:19:01;;;;;;;;;44.33;35.00;;;;;;;;4948868;28;45891;-78
2023/05/15 04:21:26;;;;;;;;;45.00;35.00;;;;;;;;4959873;28;47006;-79
2023/05/15 04:23:51;;;;;;;;;44.67;37.33;;;;;;;;4955194;28;45786;-78
2023/05/15 04:26:17;;;;;;;;;44.33;36.00;;;;;;;;4955316;28;45586;-78
2023/05/15 04:28:42;;;;;;;;;45.00;35.67;;;;;;;;4953905;28;45827;-79
2023/05/15 04:31:07;;;;;;;;;46.33;37.00;;;;;;;;4940343;28;45531;-78
2023/05/15 04:33:34;;;;;;;;;48.67;37.33;;;;;;;;4939851;28;45463;-74
2023/05/15 04:35:59;;;;;;;;;70.00;52.00;;;;;;;;4949895;28;45826;-72
2023/05/15 04:38:24;;;;;;;;;44.00;30.67;;;;;;;;4953763;28;46454;-74
2023/05/15 04:40:50;;;;;;;;;64.33;48.67;;;;;;;;4944366;28;45741;-74
2023/05/15 04:43:15;;;;;;;;;48.00;38.00;;;;;;;;4947369;28;45964;-74
2023/05/15 04:45:40;;;;;;;;;52.67;40.67;;;;;;;;4953887;28;45878;-73
2023/05/15 04:48:06;;;;;;;;;47.33;36.67;;;;;;;;4950026;28;45513;-73
2023/05/15 04:50:31;;;;;;;;;46.00;38.33;;;;;;;;4948753;28;48418;-73
2023/05/15 04:52:56;;;;;;;;;43.00;35.00;;;;;;;;4951692;28;45427;-74
2023/05/15 04:55:21;;;;;;;;;48.33;38.33;;;;;;;;4944519;28;45790;-74
2023/05/15 04:57:47;;;;;;;;;48.33;36.00;;;;;;;;4951767;28;45858;-74
2023/05/15 05:00:13;;;;;;;;;42.67;34.67;;;;;;;;4953286;28;46483;-73
2023/05/15 05:02:38;;;;;;;;;43.67;32.00;;;;;;;;4952947;28;45850;-76
2023/05/15 05:05:04;;;;;;;;;44.33;36.00;;;;;;;;4952177;28;45435;-75
2023/05/15 05:07:30;;;;;;;;;43.00;32.33;;;;;;;;4953182;28;45526;-74
2023/05/15 05:09:55;;;;;;;;;45.33;35.33;;;;;;;;4940610;28;46204;-74
2023/05/15 05:12:20;;;;;;;;;46.67;40.67;;;;;;;;4951507;28;45682;-73
2023/05/15 05:14:45;;;;;;;;;45.33;37.33;;;;;;;;4940410;28;45619;-74
2023/05/15 05:17:11;;;;;;;;;44.67;35.33;;;;;;;;4951255;28;46055;-74
2023/05/15 05:19:36;;;;;;;;;51.67;36.67;;;;;;;;4952949;28;47038;-74
2023/05/15 05:22:04;;;;;;;;;44.00;34.33;;;;;;;;4952584;28;45480;-75
2023/05/15 05:24:29;;;;;;;;;45.33;35.33;;;;;;;;4952282;28;45289;-74
2023/05/15 05:26:56;;;;;;;;;47.67;38.00;;;;;;;;4954043;28;45514;-75
2023/05/15 05:29:22;;;;;;;;;53.00;40.33;;;;;;;;4942693;28;46252;-74
2023/05/15 05:31:47;;;;;;;;;50.67;40.33;;;;;;;;4953125;28;45657;-76
2023/05/15 05:34:12;;;;;;;;;50.00;39.00;;;;;;;;4942570;28;46569;-73
2023/05/15 05:36:38;;;;;;;;;54.67;40.33;;;;;;;;4946591;28;45730;-75
2023/05/15 05:39:03;;;;;;;;;48.67;40.33;;;;;;;;4949075;28;45928;-76
2023/05/15 05:41:28;;;;;;;;;56.00;41.67;;;;;;;;4952499;28;45474;-75
2023/05/15 05:43:54;;;;;;;;;46.33;40.00;;;;;;;;4947181;28;45864;-75
2023/05/15 05:46:19;;;;;;;;;50.00;37.00;;;;;;;;4953682;28;45873;-76
2023/05/15 05:48:45;;;;;;;;;43.67;36.67;;;;;;;;4939895;28;47148;-75
2023/05/15 05:51:10;;;;;;;;;58.33;39.33;;;;;;;;4952269;28;45540;-75
2023/05/15 05:53:35;;;;;;;;;51.33;40.00;;;;;;;;4963622;28;45671;-75
2023/05/15 05:56:00;;;;;;;;;44.33;37.00;;;;;;;;4946492;28;46277;-75
2023/05/15 05:58:26;;;;;;;;;43.67;36.33;;;;;;;;4941128;28;45330;-75
2023/05/15 06:00:51;;;;;;;;;47.67;36.33;;;;;;;;4952990;28;45510;-76
2023/05/15 06:03:16;;;;;;;;;54.67;41.33;;;;;;;;4954068;28;45704;-81
2023/05/15 06:05:41;;;;;;;;;49.00;37.67;;;;;;;;4955811;28;45908;-82
2023/05/15 06:08:08;;;;;;;;;51.00;38.33;;;;;;;;4943525;28;45881;-82
2023/05/15 06:10:33;;;;;;;;;52.33;38.67;;;;;;;;4941412;28;45506;-80
2023/05/15 06:12:58;;;;;;;;;48.33;36.33;;;;;;;;4952571;28;45416;-78
2023/05/15 06:15:23;;;;;;;;;44.67;36.67;;;;;;;;4951921;28;45412;-79
2023/05/15 06:17:49;;;;;;;;;47.00;39.00;;;;;;;;4950083;28;46390;-78
2023/05/15 06:20:14;;;;;;;;;57.67;43.33;;;;;;;;4943472;28;45656;-80
2023/05/15 06:22:40;;;;;;;;;53.33;40.67;;;;;;;;4954299;28;45776;-80
2023/05/15 06:25:05;;;;;;;;;43.33;36.00;;;;;;;;4959189;28;45967;-79
2023/05/15 06:27:31;;;;;;;;;48.00;41.67;;;;;;;;4952620;28;47637;-77
2023/05/15 06:29:57;;;;;;;;;53.67;39.00;;;;;;;;4955046;28;45490;-78
2023/05/15 06:32:22;;;;;;;;;43.67;37.00;;;;;;;;4954121;28;45446;-79
2023/05/15 06:34:47;;;;;;;;;49.33;36.67;;;;;;;;4955043;28;46103;-82
2023/05/15 06:37:12;;;;;;;;;49.67;40.00;;;;;;;;4953021;28;46321;-81
2023/05/15 06:39:38;;;;;;;;;54.33;41.67;;;;;;;;4954143;28;45455;-78
2023/05/15 06:42:03;;;;;;;;;44.00;37.67;;;;;;;;4952366;28;46192;-79
2023/05/15 06:44:29;;;;;;;;;51.33;39.00;;;;;;;;4950624;28;45369;-81
2023/05/15 06:46:55;;;;;;;;;46.33;37.67;;;;;;;;4951462;28;47976;-80
2023/05/15 06:49:20;;;;;;;;;54.33;42.00;;;;;;;;4950466;28;45417;-77
2023/05/15 06:51:45;;;;;;;;;46.00;32.00;;;;;;;;4945988;28;45512;-78
2023/05/15 06:54:10;;;;;;;;;50.00;38.67;;;;;;;;4951478;28;45895;-78
2023/05/15 06:56:36;;;;;;;;;48.67;39.33;;;;;;;;4950717;28;45904;-78
2023/05/15 06:59:01;;;;;;;;;39.67;37.00;;;;;;;;4950293;28;45828;-76
2023/05/15 07:01:26;;;;;;;;;40.33;35.00;;;;;;;;4939975;28;45900;-79
2023/05/15 07:03:51;;;;;;;;;38.67;36.00;;;;;;;;4939989;28;45883;-78
2023/05/15 07:06:17;;;;;;;;;38.00;33.33;;;;;;;;4952148;28;47387;-77
2023/05/15 07:08:42;;;;;;;;;33.33;31.33;;;;;;;;4944603;28;45778;-78
2023/05/15 07:11:07;;;;;;;;;36.33;31.67;;;;;;;;4946580;28;45951;-78
2023/05/15 07:13:33;;;;;;;;;37.33;32.00;;;;;;;;4941482;28;45523;-77
2023/05/15 07:15:58;;;;;;;;;36.33;26.33;;;;;;;;4947864;28;46553;-78
2023/05/15 07:18:24;;;;;;;;;41.67;34.33;;;;;;;;4937459;28;45459;-77
2023/05/15 07:20:49;;;;;;;;;37.67;34.00;;;;;;;;4944013;28;45468;-78
2023/05/15 07:23:14;;;;;;;;;39.67;33.67;;;;;;;;4951504;28;45434;-79
2023/05/15 07:25:40;;;;;;;;;33.33;29.67;;;;;;;;4948261;28;45814;-79
2023/05/15 07:28:05;;;;;;;;;43.33;33.33;;;;;;;;4950699;28;45876;-78
2023/05/15 07:30:30;;;;;;;;;36.67;32.00;;;;;;;;4945589;28;45592;-79
2023/05/15 07:32:55;;;;;;;;;41.00;32.67;;;;;;;;4933758;28;45718;-78
2023/05/15 07:35:21;;;;;;;;;48.00;36.67;;;;;;;;4947963;28;47391;-79
2023/05/15 07:37:46;;;;;;;;;42.00;33.67;;;;;;;;4945856;28;45794;-78
2023/05/15 07:40:11;;;;;;;;;36.00;31.33;;;;;;;;4948751;28;45707;-79
2023/05/15 07:42:38;;;;;;;;;39.67;33.00;;;;;;;;4951479;28;45698;-76
2023/05/15 07:45:04;;;;;;;;;38.00;32.33;;;;;;;;4951209;28;45824;-78
2023/05/15 07:47:29;;;;;;;;;38.33;33.67;;;;;;;;4946621;28;45500;-78
2023/05/15 07:49:55;;;;;;;;;31.67;26.67;;;;;;;;4954353;28;45590;-79
2023/05/15 07:52:20;;;;;;;;;36.00;28.33;;;;;;;;4957205;28;46147;-79
2023/05/15 07:54:45;;;;;;;;;32.33;25.67;;;;;;;;4943251;28;45754;-78
2023/05/15 07:57:11;;;;;;;;;39.67;28.67;;;;;;;;4953521;28;45483;-78
2023/05/15 07:59:37;;;;;;;;;29.67;26.33;;;;;;;;4954300;28;45607;-78
2023/05/15 08:02:02;;;;;;;;;38.33;30.67;;;;;;;;4954231;28;45390;-77
2023/05/15 08:04:27;;;;;;;;;39.00;32.33;;;;;;;;4951402;28;46520;-79
2023/05/15 08:06:52;;;;;;;;;31.33;26.00;;;;;;;;4964353;28;45740;-78
2023/05/15 08:09:18;;;;;;;;;33.00;26.00;;;;;;;;4955308;28;45546;-79
2023/05/15 08:11:43;;;;;;;;;30.33;26.33;;;;;;;;4953103;28;45880;-77
2023/05/15 08:14:08;;;;;;;;;31.33;27.67;;;;;;;;4963638;28;45452;-79
2023/05/15 08:16:34;;;;;;;;;29.33;27.00;;;;;;;;4954602;28;45433;-78
2023/05/15 08:19:03;;;;;;;;;34.33;25.00;;;;;;;;4954591;28;46545;-79
2023/05/15 08:21:28;;;;;;;;;29.67;26.67;;;;;;;;4954631;28;45313;-77
2023/05/15 08:23:53;;;;;;;;;35.67;30.67;;;;;;;;4954491;28;45324;-78
2023/05/15 08:26:19;;;;;;;;;30.00;27.33;;;;;;;;4948074;28;45602;-78
2023/05/15 08:28:45;;;;;;;;;36.33;28.00;;;;;;;;4950501;28;45615;-79
2023/05/15 08:31:10;;;;;;;;;30.00;25.00;;;;;;;;4944756;28;45873;-79
2023/05/15 08:33:35;;;;;;;;;35.33;28.33;;;;;;;;4952033;28;45849;-77
2023/05/15 08:36:00;;;;;;;;;42.33;34.33;;;;;;;;4954139;28;45846;-77
2023/05/15 08:38:25;;;;;;;;;33.33;29.33;;;;;;;;4954433;28;45852;-77
2023/05/15 08:40:53;;;;;;;;;37.00;27.33;;;;;;;;4953882;28;45872;-77
2023/05/15 08:43:20;;;;;;;;;37.00;29.00;;;;;;;;4951701;28;46215;-76
2023/05/15 08:45:45;;;;;;;;;33.33;28.67;;;;;;;;4943370;28;45940;-76
2023/05/15 08:48:15;;;;;;;;;39.33;34.67;;;;;;;;4952883;28;45508;-78
2023/05/15 08:50:42;;;;;;;;;38.00;30.33;;;;;;;;4953752;28;45760;-78
2023/05/15 08:53:08;;;;;;;;;42.33;29.00;;;;;;;;4957777;28;46012;-76
2023/05/15 08:55:33;;;;;;;;;33.33;29.00;;;;;;;;4945059;28;45589;-75
2023/05/15 08:57:58;;;;;;;;;36.33;30.67;;;;;;;;4953733;28;45745;-77
2023/05/15 09:00:25;;;;;;;;;39.33;34.00;;;;;;;;4954831;28;45832;-77
2023/05/15 09:02:52;;;;;;;;;37.67;30.67;;;;;;;;4953561;28;45623;-77
2023/05/15 09:05:17;;;;;;;;;41.00;31.67;;;;;;;;4946638;28;45699;-77
2023/05/15 09:07:43;;;;;;;;;39.00;29.67;;;;;;;;4950645;28;45634;-78
2023/05/15 09:10:09;;;;;;;;;40.00;30.67;;;;;;;;4951602;28;45409;-78
2023/05/15 09:12:35;;;;;;;;;42.33;35.00;;;;;;;;4952580;28;45860;-77
2023/05/15 09:15:16;;;;;;;;;36.33;31.67;;;;;;;;4956372;28;45504;-77
2023/05/15 09:17:43;;;;;;;;;36.33;30.33;;;;;;;;4954259;28;45615;-77
2023/05/15 09:20:26;;;;;;;;;32.50;28.50;;;;;;;;4950174;28;45751;-77
2023/05/15 09:22:52;;;;;;;;;35.67;28.33;;;;;;;;4950516;28;45789;-79
2023/05/15 09:25:40;;;;;;;;;29.67;25.33;;;;;;;;4952294;28;45386;-78
2023/05/15 09:28:08;;;;;;;;;31.00;28.33;;;;;;;;4954422;28;45774;-75
2023/05/15 09:30:36;;;;;;;;;36.00;30.00;;;;;;;;4951141;28;46072;-75
2023/05/15 09:33:02;;;;;;;;;34.67;29.33;;;;;;;;4952617;28;46528;-73
2023/05/15 09:35:30;;;;;;;;;31.33;27.00;;;;;;;;4938998;28;45828;-78
2023/05/15 09:37:59;;;;;;;;;43.00;34.00;;;;;;;;4953778;28;45268;-73
2023/05/15 09:40:27;;;;;;;;;42.67;35.33;;;;;;;;4952513;28;45467;-78
2023/05/15 09:42:52;;;;;;;;;32.33;29.33;;;;;;;;4949917;28;47195;-75
2023/05/15 09:45:17;;;;;;;;;36.67;31.67;;;;;;;;4952176;28;45806;-77
2023/05/15 09:47:43;;;;;;;;;35.67;30.67;;;;;;;;4951592;28;45617;-76
2023/05/15 09:50:09;;;;;;;;;49.33;37.00;;;;;;;;4950275;28;45749;-77
2023/05/15 09:52:35;;;;;;;;;40.67;32.33;;;;;;;;4961257;28;45614;-80
2023/05/15 09:55:00;;;;;;;;;39.00;32.67;;;;;;;;4948865;28;45742;-79
2023/05/15 09:57:26;;;;;;;;;46.67;34.67;;;;;;;;4949224;28;45640;-78
2023/05/15 09:59:51;;;;;;;;;43.67;32.67;;;;;;;;4948493;28;45472;-78
2023/05/15 10:02:23;;;;;;;;;41.33;35.33;;;;;;;;4948802;28;45518;-80
2023/05/15 10:04:56;;;;;;;;;40.33;33.00;;;;;;;;4958546;28;45495;-77
2023/05/15 10:07:31;;;;;;;;;42.00;34.33;;;;;;;;4946284;28;45654;-74
2023/05/15 10:09:57;;;;;;;;;41.67;36.33;;;;;;;;4938090;28;45405;-77
2023/05/15 10:12:22;;;;;;;;;42.00;34.67;;;;;;;;4937538;28;47136;-79
2023/05/15 10:14:48;;;;;;;;;37.00;32.33;;;;;;;;4949069;28;45771;-78
2023/05/15 10:17:14;;;;;;;;;47.00;33.00;;;;;;;;4947175;28;45661;-80
2023/05/15 10:19:40;;;;;;;;;43.33;35.33;;;;;;;;4941379;28;45856;-80
2023/05/15 10:22:07;;;;;;;;;35.67;31.00;;;;;;;;4949197;28;46441;-77
2023/05/15 10:24:32;;;;;;;;;48.33;36.67;;;;;;;;4949278;28;45799;-78
2023/05/15 10:26:58;;;;;;;;;32.00;25.00;;;;;;;;4951230;28;45637;-78
2023/05/15 10:29:25;;;;;;;;;43.33;34.33;;;;;;;;4941898;28;45572;-77
2023/05/15 10:31:51;;;;;;;;;43.33;34.67;;;;;;;;4942285;28;45588;-75
2023/05/15 10:34:17;;;;;;;;;43.67;35.00;;;;;;;;4947881;28;45512;-76
2023/05/15 10:36:43;;;;;;;;;36.33;32.00;;;;;;;;4945213;28;45475;-78
2023/05/15 10:39:09;;;;;;;;;30.00;29.00;;;;;;;;4942298;28;46192;-77
2023/05/15 10:41:35;;;;;;;;;50.33;37.00;;;;;;;;4944119;28;46341;-77
2023/05/15 10:44:01;;;;;;;;;44.00;32.00;;;;;;;;4945922;28;45743;-74
2023/05/15 10:46:27;;;;;;;;;36.00;33.33;;;;;;;;4943167;28;45831;-74
2023/05/15 10:48:53;;;;;;;;;32.00;28.67;;;;;;;;4942077;28;46071;-76
2023/05/15 10:51:23;;;;;;;;;31.00;28.33;;;;;;;;4929247;28;45530;-76
2023/05/15 10:53:50;;;;;;;;;26.33;24.33;;;;;;;;4944682;28;45371;-78
2023/05/15 10:56:15;;;;;;;;;23.00;22.33;;;;;;;;4941903;28;45785;-77
2023/05/15 10:58:48;;;;;;;;;22.67;22.67;;;;;;;;4946623;28;45636;-77
2023/05/15 11:01:26;;;;;;;;;29.33;22.00;;;;;;;;4944641;28;46522;-78
2023/05/15 11:04:03;;;;;;;;;27.33;23.00;;;;;;;;4941304;28;45517;-76
2023/05/15 11:06:29;;;;;;;;;29.67;26.67;;;;;;;;4942746;28;45575;-78
2023/05/15 11:09:15;;;;;;;;;21.33;19.67;;;;;;;;4943350;28;45989;-78
2023/05/15 11:11:56;;;;;;;;;26.67;24.67;;;;;;;;4941822;28;45822;-76
2023/05/15 11:14:22;;;;;;;;;14.67;12.33;;;;;;;;4945034;28;45543;-78
2023/05/15 11:17:06;;;;;;;;;22.67;17.67;;;;;;;;4953717;28;45976;-88
2023/05/15 11:19:39;;;;;;;;;18.33;17.33;;;;;;;;4949337;28;45931;-79
2023/05/15 11:22:07;;;;;;;;;21.00;19.67;;;;;;;;4949773;28;45609;-79
2023/05/15 11:24:46;;;;;;;;;23.00;19.67;;;;;;;;4948189;28;46125;-79
2023/05/15 11:27:12;;;;;;;;;23.00;19.33;;;;;;;;4943484;28;45636;-79
2023/05/15 11:29:57;;;;;;;;;23.33;19.00;;;;;;;;4945712;28;46203;-80
2023/05/15 11:32:41;;;;;;;;;19.00;17.00;;;;;;;;4945892;28;45994;-81
2023/05/15 11:35:17;;;;;;;;;17.33;16.00;;;;;;;;4946354;28;45395;-84
2023/05/15 11:37:45;;;;;;;;;20.00;19.00;;;;;;;;4949136;28;45598;-79
2023/05/15 11:40:14;;;;;;;;;19.33;17.67;;;;;;;;4948988;28;46440;-81
2023/05/15 11:42:40;;;;;;;;;23.00;19.00;;;;;;;;4946714;28;45731;-80
2023/05/15 11:45:07;;;;;;;;;18.67;18.33;;;;;;;;4949231;28;45986;-79
2023/05/15 11:47:32;;;;;;;;;22.00;17.67;;;;;;;;4945327;28;45607;-79
2023/05/15 11:49:58;;;;;;;;;31.67;18.00;;;;;;;;4944094;28;45652;-78
2023/05/15 11:52:23;;;;;;;;;17.67;15.00;;;;;;;;4950623;28;45507;-79
2023/05/15 11:54:49;;;;;;;;;24.67;21.33;;;;;;;;4947981;28;45388;-79
2023/05/15 11:57:15;;;;;;;;;19.33;19.33;;;;;;;;4948671;28;46027;-77
2023/05/15 11:59:40;;;;;;;;;22.67;20.33;;;;;;;;4948518;28;45946;-77
2023/05/15 12:02:05;;;;;;;;;21.00;13.33;;;;;;;;4949153;28;45871;-79
2023/05/15 12:04:33;;;;;;;;;20.00;16.67;;;;;;;;4949653;28;45903;-79
2023/05/15 12:07:00;;;;;;;;;20.67;18.33;;;;;;;;4946955;28;45487;-77
2023/05/15 12:09:27;;;;;;;;;22.00;19.67;;;;;;;;4950508;28;46435;-78
2023/05/15 12:11:53;;;;;;;;;22.67;19.67;;;;;;;;4949519;28;46645;-78
2023/05/15 12:14:28;;;;;;;;;22.00;20.67;;;;;;;;4948888;28;45741;-78
2023/05/15 12:16:56;;;;;;;;;24.33;19.33;;;;;;;;4947342;28;45829;-77
2023/05/15 12:19:29;;;;;;;;;21.67;19.33;;;;;;;;4945867;28;45954;-78
2023/05/15 12:21:54;;;;;;;;;22.00;19.67;;;;;;;;4950275;28;45477;-78
2023/05/15 12:24:20;;;;;;;;;22.33;19.67;;;;;;;;4947420;28;45555;-78
2023/05/15 12:26:45;;;;;;;;;23.67;19.00;;;;;;;;4947266;28;45885;-78
2023/05/15 12:29:11;;;;;;;;;17.00;16.33;;;;;;;;4949965;28;45782;-78
2023/05/15 12:31:37;;;;;;;;;21.67;19.67;;;;;;;;4948842;28;46988;-78
2023/05/15 12:34:02;;;;;;;;;20.00;19.00;;;;;;;;4945829;28;45577;-79
2023/05/15 12:36:29;;;;;;;;;22.67;16.67;;;;;;;;4948767;28;45757;-77
2023/05/15 12:38:55;;;;;;;;;22.00;18.00;;;;;;;;4941194;28;47073;-80
2023/05/15 12:41:20;;;;;;;;;22.00;19.00;;;;;;;;4947298;28;46233;-78
2023/05/15 12:43:45;;;;;;;;;23.00;18.67;;;;;;;;4947199;28;45394;-78
2023/05/15 12:46:12;;;;;;;;;18.67;17.67;;;;;;;;4952864;28;45734;-78
2023/05/15 12:48:37;;;;;;;;;16.50;15.00;;;;;;;;4953185;28;45850;-78
2023/05/15 12:51:06;;;;;;;;;15.33;15.33;;;;;;;;4951564;28;46331;-76
2023/05/15 12:53:33;;;;;;;;;17.67;14.67;;;;;;;;4952075;28;45576;-79
2023/05/15 12:55:59;;;;;;;;;18.67;16.67;;;;;;;;4953406;28;45648;-78
2023/05/15 12:58:24;;;;;;;;;18.67;17.00;;;;;;;;4950009;28;46030;-76
2023/05/15 13:00:50;;;;;;;;;17.00;13.00;;;;;;;;4952617;28;46217;-77
2023/05/15 13:03:18;;;;;;;;;19.00;15.67;;;;;;;;4952097;28;45708;-78
2023/05/15 13:05:44;;;;;;;;;8.33;8.33;;;;;;;;4954690;28;45752;-77
2023/05/15 13:08:13;;;;;;;;;11.00;11.00;;;;;;;;4940875;28;45758;-76
2023/05/15 13:10:38;;;;;;;;;12.00;10.00;;;;;;;;4948054;28;45902;-78
2023/05/15 13:13:04;;;;;;;;;14.67;13.00;;;;;;;;4953189;28;45709;-78
2023/05/15 13:15:36;;;;;;;;;13.50;11.25;;;;;;;;4952382;28;46150;-76
2023/05/15 13:18:08;;;;;;;;;7.75;7.75;;;;;;;;4951961;28;45701;-77
2023/05/15 13:20:37;;;;;;;;;13.00;12.00;;;;;;;;4942219;28;46628;-76
2023/05/15 13:23:02;;;;;;;;;11.33;11.00;;;;;;;;4953791;28;45754;-76
2023/05/15 13:25:27;;;;;;;;;8.67;8.33;;;;;;;;4954091;28;45769;-75
2023/05/15 13:27:54;;;;;;;;;9.33;8.33;;;;;;;;4953396;28;45365;-75
2023/05/15 13:30:19;;;;;;;;;9.00;9.00;;;;;;;;4948989;28;46238;-78
2023/05/15 13:32:44;;;;;;;;;11.67;9.33;;;;;;;;4950529;28;45942;-75
2023/05/15 13:35:18;;;;;;;;;10.67;9.00;;;;;;;;4952839;28;45456;-84
2023/05/15 13:37:43;;;;;;;;;9.50;6.25;;;;;;;;4952099;28;45865;-76
2023/05/15 13:40:09;;;;;;;;;11.33;10.33;;;;;;;;4951578;28;46727;-76
2023/05/15 13:42:35;;;;;;;;;4.50;4.50;;;;;;;;4952185;28;45823;-74
2023/05/15 13:45:01;;;;;;;;;13.67;9.33;;;;;;;;4953463;28;45666;-79
2023/05/15 13:47:26;;;;;;;;;11.67;9.67;;;;;;;;4949617;28;45471;-74
2023/05/15 13:49:52;;;;;;;;;17.00;15.67;;;;;;;;4952521;28;46350;-74
2023/05/15 13:52:17;;;;;;;;;9.33;9.33;;;;;;;;4961013;28;45594;-72
2023/05/15 13:54:42;;;;;;;;;9.33;7.67;;;;;;;;4954271;28;45633;-72
2023/05/15 13:57:08;;;;;;;;;13.67;12.00;;;;;;;;4952049;28;45873;-74
2023/05/15 13:59:33;;;;;;;;;11.67;9.33;;;;;;;;4952666;28;45314;-74
2023/05/15 14:01:58;;;;;;;;;11.00;10.67;;;;;;;;4952693;28;45942;-74
2023/05/15 14:04:23;;;;;;;;;12.00;10.67;;;;;;;;4952436;28;45575;-73
2023/05/15 14:06:49;;;;;;;;;8.67;8.00;;;;;;;;4942753;28;46799;-74
2023/05/15 14:09:15;;;;;;;;;9.67;9.67;;;;;;;;4952355;28;45650;-73
2023/05/15 14:11:40;;;;;;;;;12.00;10.67;;;;;;;;4950395;28;45460;-73
2023/05/15 14:14:05;;;;;;;;;14.67;11.00;;;;;;;;4951378;28;45909;-74